createdAt,value
2019-03-20T00:04:53.797Z,102701.89
2019-03-20T00:09:47.033Z,102710.80
2019-03-20T00:14:40.518Z,102709.62
2019-03-20T00:19:33.609Z,102709.27
2019-03-20T00:24:27.324Z,102715.32
2019-03-20T00:29:21.323Z,102715.47
2019-03-20T00:34:14.926Z,102703.80
2019-03-20T00:39:08.909Z,102715.24
2019-03-20T00:44:02.294Z,102710.02
2019-03-20T00:48:55.664Z,102706.80
2019-03-20T00:53:48.845Z,102717.80
2019-03-20T00:58:41.937Z,102720.61
2019-03-20T01:03:35.024Z,102716.14
2019-03-20T01:08:28.145Z,102709.56
2019-03-20T01:13:21.437Z,102703.10
2019-03-20T01:18:14.881Z,102714.41
2019-03-20T01:23:08.088Z,102715.45
2019-03-20T01:28:01.343Z,102719.98
2019-03-20T01:32:54.409Z,102722.05
2019-03-20T01:37:47.507Z,102715.09
2019-03-20T01:42:41.485Z,102717.29
2019-03-20T01:47:34.679Z,102719.45
2019-03-20T01:52:28.557Z,102710.53
2019-03-20T01:57:21.686Z,102709.66
2019-03-20T02:02:15.391Z,102715.31
2019-03-20T02:07:09.312Z,102717.18
2019-03-20T02:12:05.110Z,102711.50
2019-03-20T02:16:59.207Z,102721.80
2019-03-20T02:21:52.957Z,102727.43
2019-03-20T02:26:46.159Z,102720.02
2019-03-20T02:31:39.512Z,102711.84
2019-03-20T02:36:32.813Z,102729.39
2019-03-20T02:41:26.175Z,102716.32
2019-03-20T02:46:19.313Z,102723.19
2019-03-20T02:51:12.499Z,102722.11
2019-03-20T02:56:05.726Z,102720.89
2019-03-20T03:00:58.904Z,102721.53
2019-03-20T03:06:05.660Z,102722.69
2019-03-20T03:10:47.060Z,102720.67
2019-03-20T03:15:40.173Z,102711.70
2019-03-20T03:20:33.433Z,102707.26
2019-03-20T03:25:26.625Z,102711.28
2019-03-20T03:30:20.510Z,102717.70
2019-03-20T03:35:18.122Z,102712.97
2019-03-20T03:40:10.876Z,102713.06
2019-03-20T03:45:07.982Z,102722.10
2019-03-20T03:50:01.567Z,102729.47
2019-03-20T03:54:55.115Z,102736.52
2019-03-20T03:59:48.317Z,102741.79
2019-03-20T04:04:41.585Z,102749.38
2019-03-20T04:09:34.789Z,102749.70
2019-03-20T04:14:27.979Z,102753.47
2019-03-20T04:19:21.051Z,102753.25
2019-03-20T04:24:14.456Z,102760.03
2019-03-20T04:29:07.660Z,102750.85
2019-03-20T04:34:01.393Z,102750.05
2019-03-20T04:38:54.604Z,102760.97
2019-03-20T04:43:48.290Z,102767.73
2019-03-20T04:48:41.778Z,102768.80
2019-03-20T04:53:35.611Z,102774.58
2019-03-20T04:58:29.360Z,102773.67
2019-03-20T05:03:22.551Z,102764.29
2019-03-20T05:08:17.121Z,102772.80
2019-03-20T05:13:10.436Z,102778.07
2019-03-20T05:18:03.669Z,102767.28
2019-03-20T05:22:56.942Z,102764.52
2019-03-20T05:27:50.293Z,102775.33
2019-03-20T05:32:43.529Z,102777.54
2019-03-20T05:37:37.419Z,102782.47
2019-03-20T05:42:31.012Z,102783.25
2019-03-20T05:47:24.389Z,102795.77
2019-03-20T05:52:17.557Z,102792.96
2019-03-20T05:57:12.610Z,102800.34
2019-03-20T06:02:05.936Z,102796.39
2019-03-20T06:06:59.147Z,102802.38
2019-03-20T06:11:52.488Z,102803.18
2019-03-20T06:16:46.155Z,102806.69
2019-03-20T06:21:39.284Z,102812.45
2019-03-20T06:26:32.611Z,102811.82
2019-03-20T06:31:25.832Z,102805.67
2019-03-20T06:36:19.004Z,102818.77
2019-03-20T06:41:12.137Z,102828.40
2019-03-20T06:46:05.383Z,102829.48
2019-03-20T06:50:58.617Z,102841.94
2019-03-20T06:55:51.943Z,102832.56
2019-03-20T07:01:13.037Z,102829.13
2019-03-20T07:06:50.060Z,102832.33
2019-03-20T07:11:43.299Z,102841.74
2019-03-20T07:16:36.553Z,102846.89
2019-03-20T07:21:29.741Z,102846.09
2019-03-20T07:26:22.875Z,102844.02
2019-03-20T07:31:16.147Z,102845.80
2019-03-20T07:36:09.767Z,102849.16
2019-03-20T07:41:03.089Z,102835.98
2019-03-20T07:45:56.196Z,102854.67
2019-03-20T07:50:49.402Z,102861.86
2019-03-20T07:55:42.597Z,102857.70
2019-03-20T08:00:35.825Z,102864.45
2019-03-20T08:05:29.746Z,102865.25
2019-03-20T08:10:23.165Z,102870.70
2019-03-20T08:15:16.854Z,102869.05
2019-03-20T08:20:11.850Z,102873.77
2019-03-20T08:25:05.801Z,102864.14
2019-03-20T08:29:59.136Z,102873.80
2019-03-20T08:34:52.821Z,102877.59
2019-03-20T08:39:46.612Z,102885.71
2019-03-20T08:44:41.183Z,102886.39
2019-03-20T08:49:34.978Z,102885.02
2019-03-20T08:54:28.591Z,102892.31
2019-03-20T08:59:21.712Z,102888.95
2019-03-20T09:04:15.101Z,102899.17
2019-03-20T09:09:08.655Z,102895.83
2019-03-20T09:14:02.198Z,102899.91
2019-03-20T09:18:55.714Z,102896.41
2019-03-20T09:23:49.053Z,102899.42
2019-03-20T09:28:42.370Z,102900.02
2019-03-20T09:33:35.728Z,102896.84
2019-03-20T09:38:28.911Z,102900.01
2019-03-20T09:43:22.249Z,102904.11
2019-03-20T09:48:15.449Z,102902.30
2019-03-20T09:53:08.731Z,102899.15
2019-03-20T09:58:11.173Z,102895.86
2019-03-20T10:02:57.039Z,102895.06
2019-03-20T10:07:50.261Z,102882.28
2019-03-20T10:12:43.620Z,102886.88
2019-03-20T10:17:36.951Z,102878.17
2019-03-20T10:22:30.826Z,102877.03
2019-03-20T10:27:24.118Z,102872.81
2019-03-20T10:32:17.452Z,102870.94
2019-03-20T10:37:10.713Z,102869.92
2019-03-20T10:42:04.445Z,102880.68
2019-03-20T10:46:58.104Z,102880.73
2019-03-20T10:51:51.652Z,102881.88
2019-03-20T10:56:45.284Z,102880.09
2019-03-20T11:01:42.758Z,102870.26
2019-03-20T11:06:34.538Z,102870.35
2019-03-20T11:11:28.033Z,102871.42
2019-03-20T11:16:21.641Z,102864.92
2019-03-20T11:21:15.158Z,102863.50
2019-03-20T11:26:08.685Z,102847.00
2019-03-20T11:31:02.598Z,102847.00
2019-03-20T11:35:56.168Z,102845.98
2019-03-20T11:40:49.781Z,102844.96
2019-03-20T11:45:43.753Z,102843.00
2019-03-20T11:50:38.151Z,102845.88
2019-03-20T11:55:31.805Z,102850.26
2019-03-20T12:00:28.043Z,102850.55
2019-03-20T12:05:21.654Z,102847.20
2019-03-20T12:10:28.278Z,102848.06
2019-03-20T12:15:21.670Z,102835.39
2019-03-20T12:20:17.170Z,102827.22
2019-03-20T12:25:16.908Z,102815.31
2019-03-20T12:30:13.758Z,102821.48
2019-03-20T12:35:22.272Z,102814.23
2019-03-20T12:40:22.535Z,102826.38
2019-03-20T12:45:17.011Z,102813.95
2019-03-20T12:50:14.253Z,102807.09
2019-03-20T12:55:09.938Z,102805.44
2019-03-20T13:00:04.782Z,102803.21
2019-03-20T13:04:58.118Z,102808.34
2019-03-20T13:09:51.450Z,102815.48
2019-03-20T13:14:49.692Z,102827.58
2019-03-20T13:19:46.165Z,102810.38
2019-03-20T13:24:43.101Z,102810.39
2019-03-20T13:29:35.743Z,102821.19
2019-03-20T13:34:29.015Z,102813.47
2019-03-20T13:39:22.261Z,102806.31
2019-03-20T13:44:16.268Z,102797.25
2019-03-20T13:49:09.383Z,102793.30
2019-03-20T13:54:02.595Z,102795.56
2019-03-20T13:58:55.897Z,102801.53
2019-03-20T14:03:50.383Z,102790.91
2019-03-20T14:08:43.627Z,102789.34
2019-03-20T14:13:38.127Z,102743.31
2019-03-20T14:18:32.303Z,102805.30
2019-03-20T14:23:25.572Z,102804.31
2019-03-20T14:28:18.946Z,102815.05
2019-03-20T14:33:12.229Z,102813.84
2019-03-20T14:38:06.632Z,102809.20
2019-03-20T14:42:59.915Z,102804.46
2019-03-20T14:47:53.302Z,102804.44
2019-03-20T14:52:46.530Z,102801.66
2019-03-20T14:57:39.896Z,102799.45
2019-03-20T15:02:34.706Z,102795.25
2019-03-20T15:07:28.080Z,102797.52
2019-03-20T15:12:21.494Z,102791.61
2019-03-20T15:17:14.745Z,102792.37
2019-03-20T15:22:08.095Z,102794.84
2019-03-20T15:27:01.341Z,102789.59
2019-03-20T15:31:54.717Z,102790.16
2019-03-20T15:36:47.916Z,102783.58
2019-03-20T15:41:41.042Z,102785.92
2019-03-20T15:46:46.244Z,102789.67
2019-03-20T15:51:39.500Z,102782.30
2019-03-20T15:56:32.967Z,102783.82
2019-03-20T16:01:28.468Z,102784.23
2019-03-20T16:06:21.592Z,102783.54
2019-03-20T16:11:28.332Z,102782.20
2019-03-20T16:16:21.678Z,102783.13
2019-03-20T16:21:15.361Z,102773.47
2019-03-20T16:26:08.995Z,102774.78
2019-03-20T16:31:02.667Z,102775.87
2019-03-20T16:35:55.996Z,102777.75
2019-03-20T16:40:49.232Z,102783.50
2019-03-20T16:45:42.452Z,102787.00
2019-03-20T16:50:35.575Z,102790.14
2019-03-20T16:55:28.947Z,102788.55
2019-03-20T17:00:26.587Z,102793.38
2019-03-20T17:05:19.820Z,102799.73
2019-03-20T17:10:17.192Z,102810.16
2019-03-20T17:15:15.754Z,102816.69
2019-03-20T17:20:09.088Z,102829.73
2019-03-20T17:25:02.355Z,102827.65
2019-03-20T17:29:55.589Z,102825.05
2019-03-20T17:34:48.837Z,102832.44
2019-03-20T17:39:42.162Z,102833.25
2019-03-20T17:44:35.816Z,102833.80
2019-03-20T17:49:29.130Z,102829.91
2019-03-20T17:54:22.258Z,102831.97
2019-03-20T17:59:15.488Z,102836.85
2019-03-20T18:04:08.809Z,102839.11
2019-03-20T18:09:02.120Z,102841.20
2019-03-20T18:13:55.265Z,102843.84
2019-03-20T18:18:48.488Z,102850.28
2019-03-20T18:23:41.699Z,102853.32
2019-03-20T18:28:34.965Z,102856.25
2019-03-20T18:33:28.194Z,102861.61
2019-03-20T18:38:21.421Z,102863.86
2019-03-20T18:43:14.566Z,102875.23
2019-03-20T18:48:07.943Z,102874.27
2019-03-20T18:53:01.277Z,102882.83
2019-03-20T18:57:54.629Z,102885.48
2019-03-20T19:02:48.041Z,102889.88
2019-03-20T19:07:41.422Z,102896.64
2019-03-20T19:12:34.754Z,102898.56
2019-03-20T19:17:28.035Z,102900.16
2019-03-20T19:22:21.386Z,102897.58
2019-03-20T19:27:14.580Z,102904.17
2019-03-20T19:32:07.920Z,102900.36
2019-03-20T19:37:01.253Z,102906.31
2019-03-20T19:41:54.385Z,102909.75
2019-03-20T19:46:47.582Z,102921.81
2019-03-20T19:51:40.815Z,102924.65
2019-03-20T19:56:33.932Z,102917.13
2019-03-20T20:01:27.162Z,102911.20
2019-03-20T20:06:20.451Z,102915.24
2019-03-20T20:11:13.695Z,102918.78
2019-03-20T20:16:06.788Z,102920.93
2019-03-20T20:21:00.037Z,102928.77
2019-03-20T20:25:53.220Z,102927.73
2019-03-20T20:30:46.478Z,102941.11
2019-03-20T20:35:39.709Z,102938.19
2019-03-20T20:40:33.062Z,102937.48
2019-03-20T20:45:26.324Z,102933.23
2019-03-20T20:50:19.553Z,102934.74
2019-03-20T20:55:13.317Z,102933.67
2019-03-20T21:00:15.792Z,102923.11
2019-03-20T21:05:09.237Z,102924.92
2019-03-20T21:10:02.549Z,102924.69
2019-03-20T21:14:55.736Z,102918.63
2019-03-20T21:19:49.831Z,102928.96
2019-03-20T21:24:44.019Z,102927.81
2019-03-20T21:30:25.584Z,102937.98
2019-03-20T21:36:37.715Z,102939.55
2019-03-20T21:42:28.314Z,102941.59
2019-03-20T21:47:36.272Z,102938.73
2019-03-20T21:52:30.337Z,102941.03
2019-03-20T21:58:21.552Z,102943.19
2019-03-20T22:03:15.541Z,102943.95
2019-03-20T22:08:11.242Z,102942.45
2019-03-20T22:13:56.907Z,102937.98
2019-03-20T22:19:40.362Z,102944.72
2019-03-20T22:25:50.690Z,102944.48
2019-03-20T22:30:44.948Z,102939.48
2019-03-20T22:35:56.303Z,102939.84
2019-03-20T22:41:52.332Z,102951.36
2019-03-20T22:47:37.936Z,102942.67
2019-03-20T22:53:37.652Z,102944.87
2019-03-20T22:58:42.605Z,102944.91
2019-03-20T23:03:46.118Z,102942.44
2019-03-20T23:08:41.644Z,102939.23
2019-03-20T23:13:41.471Z,102944.31
2019-03-20T23:18:32.270Z,102944.87
2019-03-20T23:23:26.592Z,102940.63
2019-03-20T23:28:21.349Z,102942.55
2019-03-20T23:33:16.175Z,102934.87
2019-03-20T23:38:10.806Z,102937.27
2019-03-20T23:43:05.487Z,102938.39
2019-03-20T23:48:32.292Z,102943.83
2019-03-20T23:53:26.851Z,102948.43
2019-03-20T23:58:21.189Z,102942.15
